sensor_id;sensor_type;location;lat;lon;timestamp;P1;durP1;ratioP1;P2;durP2;ratioP2
13487;SDS011;6816;48.506;9.050;2024-01-07T00:02:40;7.10;;;6.40;;
13487;SDS011;6816;48.506;9.050;2024-01-07T00:05:40;6.93;;;6.03;;
13487;SDS011;6816;48.506;9.050;2024-01-07T00:08:41;7.60;;;5.80;;
13487;SDS011;6816;48.506;9.050;2024-01-07T00:11:41;6.37;;;5.30;;
13487;SDS011;6816;48.506;9.050;2024-01-07T00:14:42;7.93;;;6.37;;
13487;SDS011;6816;48.506;9.050;2024-01-07T00:17:43;7.27;;;6.47;;
13487;SDS011;6816;48.506;9.050;2024-01-07T00:20:43;6.47;;;5.80;;
13487;SDS011;6816;48.506;9.050;2024-01-07T00:23:44;7.33;;;6.43;;
13487;SDS011;6816;48.506;9.050;2024-01-07T00:26:44;7.20;;;6.47;;
13487;SDS011;6816;48.506;9.050;2024-01-07T00:29:45;6.90;;;5.80;;
13487;SDS011;6816;48.506;9.050;2024-01-07T00:32:45;7.17;;;6.47;;
13487;SDS011;6816;48.506;9.050;2024-01-07T00:35:46;8.03;;;6.77;;
13487;SDS011;6816;48.506;9.050;2024-01-07T00:38:47;7.33;;;6.17;;
13487;SDS011;6816;48.506;9.050;2024-01-07T00:41:48;8.23;;;6.17;;
13487;SDS011;6816;48.506;9.050;2024-01-07T00:44:48;7.10;;;6.33;;
13487;SDS011;6816;48.506;9.050;2024-01-07T00:47:49;7.17;;;6.40;;
13487;SDS011;6816;48.506;9.050;2024-01-07T00:50:50;6.77;;;6.07;;
13487;SDS011;6816;48.506;9.050;2024-01-07T00:53:50;6.80;;;6.10;;
13487;SDS011;6816;48.506;9.050;2024-01-07T00:56:51;6.77;;;6.07;;
13487;SDS011;6816;48.506;9.050;2024-01-07T00:59:51;8.43;;;6.13;;
13487;SDS011;6816;48.506;9.050;2024-01-07T01:02:52;8.20;;;6.17;;
13487;SDS011;6816;48.506;9.050;2024-01-07T01:05:53;6.87;;;6.00;;
13487;SDS011;6816;48.506;9.050;2024-01-07T01:08:53;7.73;;;6.00;;
13487;SDS011;6816;48.506;9.050;2024-01-07T01:11:54;8.10;;;6.77;;
13487;SDS011;6816;48.506;9.050;2024-01-07T01:14:54;7.47;;;6.47;;
13487;SDS011;6816;48.506;9.050;2024-01-07T01:17:55;7.20;;;6.20;;
13487;SDS011;6816;48.506;9.050;2024-01-07T01:20:56;8.90;;;6.07;;
13487;SDS011;6816;48.506;9.050;2024-01-07T01:23:56;7.70;;;6.37;;
13487;SDS011;6816;48.506;9.050;2024-01-07T01:26:57;7.57;;;6.07;;
13487;SDS011;6816;48.506;9.050;2024-01-07T01:29:58;7.60;;;6.07;;
13487;SDS011;6816;48.506;9.050;2024-01-07T01:32:59;7.23;;;5.80;;
13487;SDS011;6816;48.506;9.050;2024-01-07T01:36:03;6.77;;;6.07;;
13487;SDS011;6816;48.506;9.050;2024-01-07T01:39:05;7.60;;;6.33;;
13487;SDS011;6816;48.506;9.050;2024-01-07T01:42:05;8.07;;;6.63;;
13487;SDS011;6816;48.506;9.050;2024-01-07T01:45:06;8.17;;;6.90;;
13487;SDS011;6816;48.506;9.050;2024-01-07T01:48:07;9.33;;;5.93;;
13487;SDS011;6816;48.506;9.050;2024-01-07T01:51:07;7.97;;;6.27;;
13487;SDS011;6816;48.506;9.050;2024-01-07T01:54:08;7.60;;;6.63;;
13487;SDS011;6816;48.506;9.050;2024-01-07T01:57:11;7.87;;;6.50;;
13487;SDS011;6816;48.506;9.050;2024-01-07T02:00:16;7.30;;;6.43;;
13487;SDS011;6816;48.506;9.050;2024-01-07T02:03:18;7.80;;;6.37;;
13487;SDS011;6816;48.506;9.050;2024-01-07T02:06:19;7.63;;;6.57;;
13487;SDS011;6816;48.506;9.050;2024-01-07T02:09:20;7.53;;;6.50;;
13487;SDS011;6816;48.506;9.050;2024-01-07T02:12:21;7.33;;;6.00;;
13487;SDS011;6816;48.506;9.050;2024-01-07T02:15:21;6.83;;;6.13;;
13487;SDS011;6816;48.506;9.050;2024-01-07T02:18:22;8.57;;;6.77;;
13487;SDS011;6816;48.506;9.050;2024-01-07T02:21:23;8.93;;;6.70;;
13487;SDS011;6816;48.506;9.050;2024-01-07T02:24:23;7.73;;;6.53;;
13487;SDS011;6816;48.506;9.050;2024-01-07T02:27:24;7.27;;;5.90;;
13487;SDS011;6816;48.506;9.050;2024-01-07T02:30:25;7.27;;;5.70;;
13487;SDS011;6816;48.506;9.050;2024-01-07T02:33:27;8.87;;;7.23;;
13487;SDS011;6816;48.506;9.050;2024-01-07T02:36:28;9.67;;;7.43;;
13487;SDS011;6816;48.506;9.050;2024-01-07T02:39:28;7.77;;;6.43;;
13487;SDS011;6816;48.506;9.050;2024-01-07T02:42:29;7.53;;;6.30;;
13487;SDS011;6816;48.506;9.050;2024-01-07T02:45:29;7.63;;;6.47;;
13487;SDS011;6816;48.506;9.050;2024-01-07T02:48:30;7.70;;;6.60;;
13487;SDS011;6816;48.506;9.050;2024-01-07T02:51:31;7.30;;;6.50;;
13487;SDS011;6816;48.506;9.050;2024-01-07T02:54:31;8.77;;;6.40;;
13487;SDS011;6816;48.506;9.050;2024-01-07T02:57:32;7.93;;;6.63;;
13487;SDS011;6816;48.506;9.050;2024-01-07T03:00:32;7.10;;;6.20;;
13487;SDS011;6816;48.506;9.050;2024-01-07T03:03:33;9.10;;;6.50;;
13487;SDS011;6816;48.506;9.050;2024-01-07T03:06:33;6.80;;;5.90;;
13487;SDS011;6816;48.506;9.050;2024-01-07T03:09:34;8.00;;;6.37;;
13487;SDS011;6816;48.506;9.050;2024-01-07T03:12:34;6.90;;;6.20;;
13487;SDS011;6816;48.506;9.050;2024-01-07T03:15:35;7.60;;;6.17;;
13487;SDS011;6816;48.506;9.050;2024-01-07T03:18:36;7.47;;;6.03;;
13487;SDS011;6816;48.506;9.050;2024-01-07T03:21:36;8.50;;;6.53;;
13487;SDS011;6816;48.506;9.050;2024-01-07T03:24:37;8.30;;;5.93;;
13487;SDS011;6816;48.506;9.050;2024-01-07T03:27:37;6.87;;;5.83;;
13487;SDS011;6816;48.506;9.050;2024-01-07T03:30:38;6.63;;;5.40;;
13487;SDS011;6816;48.506;9.050;2024-01-07T03:33:39;8.60;;;6.10;;
13487;SDS011;6816;48.506;9.050;2024-01-07T03:36:41;8.93;;;6.00;;
13487;SDS011;6816;48.506;9.050;2024-01-07T03:39:41;6.67;;;5.33;;
13487;SDS011;6816;48.506;9.050;2024-01-07T03:42:42;6.90;;;6.13;;
13487;SDS011;6816;48.506;9.050;2024-01-07T03:45:42;7.60;;;6.03;;
13487;SDS011;6816;48.506;9.050;2024-01-07T03:48:43;7.07;;;5.67;;
13487;SDS011;6816;48.506;9.050;2024-01-07T03:51:44;7.33;;;5.93;;
13487;SDS011;6816;48.506;9.050;2024-01-07T03:54:45;7.67;;;6.00;;
13487;SDS011;6816;48.506;9.050;2024-01-07T03:57:46;6.70;;;5.60;;
13487;SDS011;6816;48.506;9.050;2024-01-07T04:00:46;6.30;;;5.47;;
13487;SDS011;6816;48.506;9.050;2024-01-07T04:03:47;7.13;;;5.40;;
13487;SDS011;6816;48.506;9.050;2024-01-07T04:06:48;7.17;;;5.63;;
13487;SDS011;6816;48.506;9.050;2024-01-07T04:09:48;8.17;;;5.73;;
13487;SDS011;6816;48.506;9.050;2024-01-07T04:12:49;7.53;;;6.23;;
13487;SDS011;6816;48.506;9.050;2024-01-07T04:15:50;6.67;;;5.97;;
13487;SDS011;6816;48.506;9.050;2024-01-07T04:18:50;7.33;;;5.57;;
13487;SDS011;6816;48.506;9.050;2024-01-07T04:21:51;7.50;;;5.90;;
13487;SDS011;6816;48.506;9.050;2024-01-07T04:24:51;7.70;;;5.90;;
13487;SDS011;6816;48.506;9.050;2024-01-07T04:27:52;8.70;;;5.90;;
13487;SDS011;6816;48.506;9.050;2024-01-07T04:30:53;7.37;;;6.27;;
13487;SDS011;6816;48.506;9.050;2024-01-07T04:33:53;6.53;;;5.60;;
13487;SDS011;6816;48.506;9.050;2024-01-07T04:36:54;6.80;;;5.97;;
13487;SDS011;6816;48.506;9.050;2024-01-07T04:39:54;7.17;;;6.20;;
13487;SDS011;6816;48.506;9.050;2024-01-07T04:42:55;7.83;;;6.03;;
13487;SDS011;6816;48.506;9.050;2024-01-07T04:45:58;7.07;;;5.93;;
13487;SDS011;6816;48.506;9.050;2024-01-07T04:48:58;8.27;;;6.60;;
13487;SDS011;6816;48.506;9.050;2024-01-07T04:51:59;6.50;;;5.43;;
13487;SDS011;6816;48.506;9.050;2024-01-07T04:54:59;8.27;;;6.37;;
13487;SDS011;6816;48.506;9.050;2024-01-07T04:58:00;6.93;;;6.10;;
13487;SDS011;6816;48.506;9.050;2024-01-07T05:01:01;7.03;;;6.27;;
13487;SDS011;6816;48.506;9.050;2024-01-07T05:04:02;6.27;;;5.63;;
13487;SDS011;6816;48.506;9.050;2024-01-07T05:07:03;7.20;;;5.47;;
13487;SDS011;6816;48.506;9.050;2024-01-07T05:10:04;7.80;;;6.03;;
13487;SDS011;6816;48.506;9.050;2024-01-07T05:13:05;8.07;;;6.33;;
13487;SDS011;6816;48.506;9.050;2024-01-07T05:16:06;6.83;;;5.90;;
13487;SDS011;6816;48.506;9.050;2024-01-07T05:19:07;7.57;;;6.33;;
13487;SDS011;6816;48.506;9.050;2024-01-07T05:22:07;7.17;;;5.93;;
13487;SDS011;6816;48.506;9.050;2024-01-07T05:25:08;7.80;;;6.57;;
13487;SDS011;6816;48.506;9.050;2024-01-07T05:28:09;7.67;;;5.67;;
13487;SDS011;6816;48.506;9.050;2024-01-07T05:31:13;7.07;;;5.63;;
13487;SDS011;6816;48.506;9.050;2024-01-07T05:34:17;7.13;;;6.10;;
13487;SDS011;6816;48.506;9.050;2024-01-07T05:37:18;6.50;;;5.80;;
13487;SDS011;6816;48.506;9.050;2024-01-07T05:40:19;7.17;;;6.47;;
13487;SDS011;6816;48.506;9.050;2024-01-07T05:43:19;7.33;;;6.47;;
13487;SDS011;6816;48.506;9.050;2024-01-07T05:46:20;7.90;;;6.27;;
13487;SDS011;6816;48.506;9.050;2024-01-07T05:49:21;7.60;;;6.30;;
13487;SDS011;6816;48.506;9.050;2024-01-07T05:52:21;7.07;;;6.07;;
13487;SDS011;6816;48.506;9.050;2024-01-07T05:55:22;5.63;;;5.10;;
13487;SDS011;6816;48.506;9.050;2024-01-07T05:58:23;7.17;;;5.40;;
13487;SDS011;6816;48.506;9.050;2024-01-07T06:01:24;5.80;;;5.20;;
13487;SDS011;6816;48.506;9.050;2024-01-07T06:04:24;6.17;;;5.57;;
13487;SDS011;6816;48.506;9.050;2024-01-07T06:07:25;5.43;;;4.93;;
13487;SDS011;6816;48.506;9.050;2024-01-07T06:10:25;6.07;;;5.10;;
13487;SDS011;6816;48.506;9.050;2024-01-07T06:13:26;7.67;;;5.07;;
13487;SDS011;6816;48.506;9.050;2024-01-07T06:16:26;6.30;;;4.93;;
13487;SDS011;6816;48.506;9.050;2024-01-07T06:19:27;5.80;;;4.97;;
13487;SDS011;6816;48.506;9.050;2024-01-07T06:22:29;6.27;;;5.67;;
13487;SDS011;6816;48.506;9.050;2024-01-07T06:25:30;6.90;;;5.93;;
13487;SDS011;6816;48.506;9.050;2024-01-07T06:28:31;6.47;;;5.27;;
13487;SDS011;6816;48.506;9.050;2024-01-07T06:31:33;6.10;;;5.47;;
13487;SDS011;6816;48.506;9.050;2024-01-07T06:34:34;6.33;;;5.37;;
13487;SDS011;6816;48.506;9.050;2024-01-07T06:37:34;6.10;;;5.50;;
13487;SDS011;6816;48.506;9.050;2024-01-07T06:40:35;6.70;;;5.67;;
13487;SDS011;6816;48.506;9.050;2024-01-07T06:43:35;6.43;;;5.10;;
13487;SDS011;6816;48.506;9.050;2024-01-07T06:46:36;6.10;;;5.33;;
13487;SDS011;6816;48.506;9.050;2024-01-07T06:49:36;6.70;;;5.57;;
13487;SDS011;6816;48.506;9.050;2024-01-07T06:52:38;6.00;;;5.40;;
13487;SDS011;6816;48.506;9.050;2024-01-07T06:55:39;6.43;;;5.83;;
13487;SDS011;6816;48.506;9.050;2024-01-07T06:58:39;7.00;;;5.87;;
13487;SDS011;6816;48.506;9.050;2024-01-07T07:01:40;6.63;;;5.93;;
13487;SDS011;6816;48.506;9.050;2024-01-07T07:04:41;6.47;;;5.70;;
13487;SDS011;6816;48.506;9.050;2024-01-07T07:07:41;6.60;;;5.90;;
13487;SDS011;6816;48.506;9.050;2024-01-07T07:10:42;8.10;;;6.10;;
13487;SDS011;6816;48.506;9.050;2024-01-07T07:13:43;7.57;;;5.93;;
13487;SDS011;6816;48.506;9.050;2024-01-07T07:16:43;6.53;;;5.87;;
13487;SDS011;6816;48.506;9.050;2024-01-07T07:19:44;6.87;;;6.17;;
13487;SDS011;6816;48.506;9.050;2024-01-07T07:22:44;7.20;;;6.40;;
13487;SDS011;6816;48.506;9.050;2024-01-07T07:25:45;6.63;;;5.93;;
13487;SDS011;6816;48.506;9.050;2024-01-07T07:28:46;6.57;;;5.87;;
13487;SDS011;6816;48.506;9.050;2024-01-07T07:31:47;6.60;;;5.90;;
13487;SDS011;6816;48.506;9.050;2024-01-07T07:34:48;6.80;;;5.87;;
13487;SDS011;6816;48.506;9.050;2024-01-07T07:37:49;6.87;;;6.07;;
13487;SDS011;6816;48.506;9.050;2024-01-07T07:40:49;7.13;;;6.43;;
13487;SDS011;6816;48.506;9.050;2024-01-07T07:43:52;7.77;;;6.07;;
13487;SDS011;6816;48.506;9.050;2024-01-07T07:46:54;7.37;;;5.87;;
13487;SDS011;6816;48.506;9.050;2024-01-07T07:49:55;7.60;;;6.90;;
13487;SDS011;6816;48.506;9.050;2024-01-07T07:52:55;7.43;;;6.30;;
13487;SDS011;6816;48.506;9.050;2024-01-07T07:55:56;7.27;;;6.50;;
13487;SDS011;6816;48.506;9.050;2024-01-07T07:58:56;7.20;;;6.50;;
13487;SDS011;6816;48.506;9.050;2024-01-07T08:01:57;7.07;;;6.37;;
13487;SDS011;6816;48.506;9.050;2024-01-07T08:04:58;6.73;;;6.07;;
13487;SDS011;6816;48.506;9.050;2024-01-07T08:07:59;6.93;;;6.23;;
13487;SDS011;6816;48.506;9.050;2024-01-07T08:11:00;7.07;;;6.37;;
13487;SDS011;6816;48.506;9.050;2024-01-07T08:14:00;7.40;;;6.27;;
13487;SDS011;6816;48.506;9.050;2024-01-07T08:17:01;7.60;;;6.80;;
13487;SDS011;6816;48.506;9.050;2024-01-07T08:20:04;8.10;;;6.90;;
13487;SDS011;6816;48.506;9.050;2024-01-07T08:23:05;8.30;;;7.20;;
13487;SDS011;6816;48.506;9.050;2024-01-07T08:26:06;7.13;;;6.43;;
13487;SDS011;6816;48.506;9.050;2024-01-07T08:29:07;8.10;;;7.00;;
13487;SDS011;6816;48.506;9.050;2024-01-07T08:32:08;8.07;;;7.27;;
13487;SDS011;6816;48.506;9.050;2024-01-07T08:35:08;6.90;;;6.10;;
13487;SDS011;6816;48.506;9.050;2024-01-07T08:38:09;7.17;;;6.40;;
13487;SDS011;6816;48.506;9.050;2024-01-07T08:41:10;6.90;;;6.20;;
13487;SDS011;6816;48.506;9.050;2024-01-07T08:44:10;6.33;;;5.73;;
13487;SDS011;6816;48.506;9.050;2024-01-07T08:47:11;5.70;;;5.20;;
13487;SDS011;6816;48.506;9.050;2024-01-07T08:50:13;6.50;;;5.90;;
13487;SDS011;6816;48.506;9.050;2024-01-07T08:53:14;6.47;;;5.77;;
13487;SDS011;6816;48.506;9.050;2024-01-07T08:56:14;6.83;;;5.97;;
13487;SDS011;6816;48.506;9.050;2024-01-07T08:59:15;7.10;;;5.93;;
13487;SDS011;6816;48.506;9.050;2024-01-07T09:02:15;7.33;;;6.53;;
13487;SDS011;6816;48.506;9.050;2024-01-07T09:05:16;7.60;;;6.47;;
13487;SDS011;6816;48.506;9.050;2024-01-07T09:08:17;6.60;;;5.90;;
13487;SDS011;6816;48.506;9.050;2024-01-07T09:11:21;6.93;;;6.13;;
13487;SDS011;6816;48.506;9.050;2024-01-07T09:14:22;7.20;;;6.30;;
13487;SDS011;6816;48.506;9.050;2024-01-07T09:17:23;6.23;;;5.63;;
13487;SDS011;6816;48.506;9.050;2024-01-07T09:20:23;6.73;;;5.80;;
13487;SDS011;6816;48.506;9.050;2024-01-07T09:23:24;6.47;;;5.77;;
13487;SDS011;6816;48.506;9.050;2024-01-07T09:26:25;6.33;;;5.30;;
13487;SDS011;6816;48.506;9.050;2024-01-07T09:29:25;6.83;;;5.47;;
13487;SDS011;6816;48.506;9.050;2024-01-07T09:32:27;5.67;;;5.07;;
13487;SDS011;6816;48.506;9.050;2024-01-07T09:35:28;6.37;;;5.60;;
13487;SDS011;6816;48.506;9.050;2024-01-07T09:38:28;7.77;;;6.10;;
13487;SDS011;6816;48.506;9.050;2024-01-07T09:41:29;7.03;;;5.63;;
13487;SDS011;6816;48.506;9.050;2024-01-07T09:44:29;6.87;;;6.00;;
13487;SDS011;6816;48.506;9.050;2024-01-07T09:47:31;6.43;;;5.83;;
13487;SDS011;6816;48.506;9.050;2024-01-07T09:50:32;6.33;;;5.53;;
13487;SDS011;6816;48.506;9.050;2024-01-07T09:53:33;6.50;;;5.73;;
13487;SDS011;6816;48.506;9.050;2024-01-07T09:56:42;7.50;;;6.00;;
13487;SDS011;6816;48.506;9.050;2024-01-07T09:59:53;6.43;;;5.17;;
13487;SDS011;6816;48.506;9.050;2024-01-07T10:02:54;5.43;;;4.90;;
13487;SDS011;6816;48.506;9.050;2024-01-07T10:05:54;7.20;;;5.13;;
13487;SDS011;6816;48.506;9.050;2024-01-07T10:08:55;5.63;;;5.10;;
13487;SDS011;6816;48.506;9.050;2024-01-07T10:11:55;6.47;;;5.50;;
13487;SDS011;6816;48.506;9.050;2024-01-07T10:14:56;6.40;;;4.83;;
13487;SDS011;6816;48.506;9.050;2024-01-07T10:18:04;6.83;;;5.67;;
13487;SDS011;6816;48.506;9.050;2024-01-07T10:21:08;5.87;;;5.10;;
13487;SDS011;6816;48.506;9.050;2024-01-07T10:24:09;6.23;;;4.70;;
13487;SDS011;6816;48.506;9.050;2024-01-07T10:27:10;5.70;;;4.80;;
13487;SDS011;6816;48.506;9.050;2024-01-07T10:30:12;5.53;;;4.97;;
13487;SDS011;6816;48.506;9.050;2024-01-07T10:33:16;4.70;;;4.20;;
13487;SDS011;6816;48.506;9.050;2024-01-07T10:36:18;5.73;;;4.20;;
13487;SDS011;6816;48.506;9.050;2024-01-07T10:39:20;4.37;;;3.97;;
13487;SDS011;6816;48.506;9.050;2024-01-07T10:42:20;5.80;;;4.80;;
13487;SDS011;6816;48.506;9.050;2024-01-07T10:45:22;5.50;;;4.20;;
13487;SDS011;6816;48.506;9.050;2024-01-07T10:48:23;4.90;;;4.17;;
13487;SDS011;6816;48.506;9.050;2024-01-07T10:51:27;4.97;;;4.17;;
13487;SDS011;6816;48.506;9.050;2024-01-07T10:54:28;5.87;;;3.80;;
13487;SDS011;6816;48.506;9.050;2024-01-07T10:57:43;4.80;;;3.93;;
13487;SDS011;6816;48.506;9.050;2024-01-07T11:00:46;4.97;;;3.83;;
13487;SDS011;6816;48.506;9.050;2024-01-07T11:07:00;4.83;;;4.33;;
13487;SDS011;6816;48.506;9.050;2024-01-07T11:10:13;4.37;;;3.97;;
13487;SDS011;6816;48.506;9.050;2024-01-07T11:13:37;4.33;;;3.63;;
13487;SDS011;6816;48.506;9.050;2024-01-07T11:19:49;5.13;;;3.93;;
13487;SDS011;6816;48.506;9.050;2024-01-07T11:22:51;4.43;;;3.70;;
13487;SDS011;6816;48.506;9.050;2024-01-07T11:25:51;3.90;;;3.23;;
13487;SDS011;6816;48.506;9.050;2024-01-07T11:28:53;4.37;;;3.47;;
13487;SDS011;6816;48.506;9.050;2024-01-07T11:31:56;4.27;;;3.57;;
13487;SDS011;6816;48.506;9.050;2024-01-07T11:34:56;4.87;;;4.00;;
13487;SDS011;6816;48.506;9.050;2024-01-07T11:37:59;4.37;;;3.73;;
13487;SDS011;6816;48.506;9.050;2024-01-07T11:41:00;4.40;;;3.63;;
13487;SDS011;6816;48.506;9.050;2024-01-07T11:44:00;4.00;;;3.53;;
13487;SDS011;6816;48.506;9.050;2024-01-07T11:47:03;4.30;;;3.60;;
13487;SDS011;6816;48.506;9.050;2024-01-07T11:50:05;4.60;;;4.00;;
13487;SDS011;6816;48.506;9.050;2024-01-07T11:53:06;6.33;;;4.63;;
13487;SDS011;6816;48.506;9.050;2024-01-07T11:56:08;5.40;;;4.33;;
13487;SDS011;6816;48.506;9.050;2024-01-07T11:59:09;6.80;;;4.50;;
13487;SDS011;6816;48.506;9.050;2024-01-07T12:02:09;5.63;;;4.90;;
13487;SDS011;6816;48.506;9.050;2024-01-07T12:05:10;5.83;;;4.87;;
13487;SDS011;6816;48.506;9.050;2024-01-07T12:08:10;5.80;;;4.63;;
13487;SDS011;6816;48.506;9.050;2024-01-07T12:11:11;5.60;;;4.33;;
13487;SDS011;6816;48.506;9.050;2024-01-07T12:14:13;5.43;;;4.37;;
13487;SDS011;6816;48.506;9.050;2024-01-07T12:17:16;5.40;;;4.53;;
13487;SDS011;6816;48.506;9.050;2024-01-07T12:20:17;6.40;;;4.87;;
13487;SDS011;6816;48.506;9.050;2024-01-07T12:23:18;5.87;;;4.97;;
13487;SDS011;6816;48.506;9.050;2024-01-07T12:26:18;5.53;;;4.67;;
13487;SDS011;6816;48.506;9.050;2024-01-07T12:29:19;6.03;;;4.57;;
13487;SDS011;6816;48.506;9.050;2024-01-07T12:32:21;5.37;;;4.50;;
13487;SDS011;6816;48.506;9.050;2024-01-07T12:35:24;5.60;;;5.00;;
13487;SDS011;6816;48.506;9.050;2024-01-07T12:38:27;4.97;;;4.20;;
13487;SDS011;6816;48.506;9.050;2024-01-07T12:41:27;5.63;;;4.47;;
13487;SDS011;6816;48.506;9.050;2024-01-07T12:44:29;4.40;;;3.93;;
13487;SDS011;6816;48.506;9.050;2024-01-07T12:47:29;5.67;;;4.73;;
13487;SDS011;6816;48.506;9.050;2024-01-07T12:50:30;4.87;;;4.17;;
13487;SDS011;6816;48.506;9.050;2024-01-07T12:53:31;4.97;;;4.47;;
13487;SDS011;6816;48.506;9.050;2024-01-07T12:56:32;4.60;;;3.97;;
13487;SDS011;6816;48.506;9.050;2024-01-07T12:59:32;5.27;;;4.37;;
13487;SDS011;6816;48.506;9.050;2024-01-07T13:02:33;5.50;;;4.67;;
13487;SDS011;6816;48.506;9.050;2024-01-07T13:05:34;4.80;;;4.30;;
13487;SDS011;6816;48.506;9.050;2024-01-07T13:08:35;5.07;;;4.53;;
13487;SDS011;6816;48.506;9.050;2024-01-07T13:11:35;6.13;;;4.70;;
13487;SDS011;6816;48.506;9.050;2024-01-07T13:14:36;5.70;;;4.30;;
13487;SDS011;6816;48.506;9.050;2024-01-07T13:17:37;5.63;;;4.47;;
13487;SDS011;6816;48.506;9.050;2024-01-07T13:20:37;6.37;;;4.67;;
13487;SDS011;6816;48.506;9.050;2024-01-07T13:23:41;6.13;;;4.70;;
13487;SDS011;6816;48.506;9.050;2024-01-07T13:26:44;5.67;;;5.07;;
13487;SDS011;6816;48.506;9.050;2024-01-07T13:29:44;5.43;;;4.60;;
13487;SDS011;6816;48.506;9.050;2024-01-07T13:32:47;5.90;;;5.00;;
13487;SDS011;6816;48.506;9.050;2024-01-07T13:35:49;8.10;;;5.33;;
13487;SDS011;6816;48.506;9.050;2024-01-07T13:38:50;6.50;;;5.80;;
13487;SDS011;6816;48.506;9.050;2024-01-07T13:41:51;6.47;;;5.30;;
13487;SDS011;6816;48.506;9.050;2024-01-07T13:44:53;5.90;;;5.20;;
13487;SDS011;6816;48.506;9.050;2024-01-07T13:47:54;6.20;;;5.03;;
13487;SDS011;6816;48.506;9.050;2024-01-07T13:50:55;6.50;;;5.40;;
13487;SDS011;6816;48.506;9.050;2024-01-07T13:53:57;5.20;;;4.37;;
13487;SDS011;6816;48.506;9.050;2024-01-07T13:56:57;5.50;;;4.97;;
13487;SDS011;6816;48.506;9.050;2024-01-07T13:59:59;5.60;;;4.83;;
13487;SDS011;6816;48.506;9.050;2024-01-07T14:03:00;5.77;;;5.10;;
13487;SDS011;6816;48.506;9.050;2024-01-07T14:06:01;5.77;;;5.17;;
13487;SDS011;6816;48.506;9.050;2024-01-07T14:09:03;5.40;;;4.77;;
13487;SDS011;6816;48.506;9.050;2024-01-07T14:12:03;6.27;;;5.00;;
13487;SDS011;6816;48.506;9.050;2024-01-07T14:15:04;6.60;;;5.53;;
13487;SDS011;6816;48.506;9.050;2024-01-07T14:18:05;8.63;;;6.00;;
13487;SDS011;6816;48.506;9.050;2024-01-07T14:21:06;7.13;;;5.40;;
13487;SDS011;6816;48.506;9.050;2024-01-07T14:24:07;7.23;;;5.93;;
13487;SDS011;6816;48.506;9.050;2024-01-07T14:27:08;6.17;;;5.20;;
13487;SDS011;6816;48.506;9.050;2024-01-07T14:30:09;7.23;;;5.63;;
13487;SDS011;6816;48.506;9.050;2024-01-07T14:33:10;5.60;;;5.07;;
13487;SDS011;6816;48.506;9.050;2024-01-07T14:36:10;7.40;;;5.37;;
13487;SDS011;6816;48.506;9.050;2024-01-07T14:39:16;6.47;;;5.60;;
13487;SDS011;6816;48.506;9.050;2024-01-07T14:42:17;6.30;;;5.50;;
13487;SDS011;6816;48.506;9.050;2024-01-07T14:45:18;6.03;;;5.03;;
13487;SDS011;6816;48.506;9.050;2024-01-07T14:48:19;7.50;;;5.77;;
13487;SDS011;6816;48.506;9.050;2024-01-07T14:51:20;7.00;;;5.70;;
13487;SDS011;6816;48.506;9.050;2024-01-07T14:54:20;8.13;;;6.23;;
13487;SDS011;6816;48.506;9.050;2024-01-07T14:57:21;6.60;;;5.63;;
13487;SDS011;6816;48.506;9.050;2024-01-07T15:00:22;7.83;;;5.90;;
13487;SDS011;6816;48.506;9.050;2024-01-07T15:03:24;7.40;;;5.73;;
13487;SDS011;6816;48.506;9.050;2024-01-07T15:06:25;8.07;;;6.13;;
13487;SDS011;6816;48.506;9.050;2024-01-07T15:09:26;7.73;;;6.20;;
13487;SDS011;6816;48.506;9.050;2024-01-07T15:12:27;8.67;;;6.87;;
13487;SDS011;6816;48.506;9.050;2024-01-07T15:15:36;9.73;;;7.10;;
13487;SDS011;6816;48.506;9.050;2024-01-07T15:18:37;9.17;;;7.00;;
13487;SDS011;6816;48.506;9.050;2024-01-07T15:21:37;8.07;;;7.00;;
13487;SDS011;6816;48.506;9.050;2024-01-07T15:24:38;8.37;;;6.63;;
13487;SDS011;6816;48.506;9.050;2024-01-07T15:27:39;9.00;;;6.87;;
13487;SDS011;6816;48.506;9.050;2024-01-07T15:30:39;8.93;;;7.13;;
13487;SDS011;6816;48.506;9.050;2024-01-07T15:33:40;9.40;;;7.10;;
13487;SDS011;6816;48.506;9.050;2024-01-07T15:36:40;8.13;;;6.57;;
13487;SDS011;6816;48.506;9.050;2024-01-07T15:39:41;9.43;;;7.27;;
13487;SDS011;6816;48.506;9.050;2024-01-07T15:42:43;8.73;;;7.27;;
13487;SDS011;6816;48.506;9.050;2024-01-07T15:45:44;7.60;;;6.73;;
13487;SDS011;6816;48.506;9.050;2024-01-07T15:48:44;9.00;;;6.83;;
13487;SDS011;6816;48.506;9.050;2024-01-07T15:51:45;7.93;;;6.43;;
13487;SDS011;6816;48.506;9.050;2024-01-07T15:54:46;9.33;;;7.47;;
13487;SDS011;6816;48.506;9.050;2024-01-07T15:57:46;9.37;;;6.83;;
13487;SDS011;6816;48.506;9.050;2024-01-07T16:00:47;8.47;;;7.00;;
13487;SDS011;6816;48.506;9.050;2024-01-07T16:03:47;8.37;;;7.10;;
13487;SDS011;6816;48.506;9.050;2024-01-07T16:06:48;9.17;;;6.83;;
13487;SDS011;6816;48.506;9.050;2024-01-07T16:09:48;9.00;;;6.63;;
13487;SDS011;6816;48.506;9.050;2024-01-07T16:12:49;8.37;;;6.70;;
13487;SDS011;6816;48.506;9.050;2024-01-07T16:15:50;9.63;;;7.43;;
13487;SDS011;6816;48.506;9.050;2024-01-07T16:18:50;7.33;;;6.13;;
13487;SDS011;6816;48.506;9.050;2024-01-07T16:21:51;9.37;;;7.43;;
13487;SDS011;6816;48.506;9.050;2024-01-07T16:24:52;8.33;;;7.00;;
13487;SDS011;6816;48.506;9.050;2024-01-07T16:27:52;8.47;;;7.03;;
13487;SDS011;6816;48.506;9.050;2024-01-07T16:30:53;8.43;;;7.00;;
13487;SDS011;6816;48.506;9.050;2024-01-07T16:33:54;7.50;;;6.33;;
13487;SDS011;6816;48.506;9.050;2024-01-07T16:36:55;8.13;;;6.13;;
13487;SDS011;6816;48.506;9.050;2024-01-07T16:39:56;8.03;;;6.93;;
13487;SDS011;6816;48.506;9.050;2024-01-07T16:42:56;8.93;;;6.90;;
13487;SDS011;6816;48.506;9.050;2024-01-07T16:45:59;8.30;;;6.80;;
13487;SDS011;6816;48.506;9.050;2024-01-07T16:49:00;9.13;;;6.90;;
13487;SDS011;6816;48.506;9.050;2024-01-07T16:52:00;8.53;;;6.80;;
13487;SDS011;6816;48.506;9.050;2024-01-07T16:55:01;10.03;;;8.13;;
13487;SDS011;6816;48.506;9.050;2024-01-07T16:58:02;9.30;;;7.30;;
13487;SDS011;6816;48.506;9.050;2024-01-07T17:01:02;8.80;;;6.83;;
13487;SDS011;6816;48.506;9.050;2024-01-07T17:04:03;8.80;;;6.50;;
13487;SDS011;6816;48.506;9.050;2024-01-07T17:07:04;8.83;;;6.73;;
13487;SDS011;6816;48.506;9.050;2024-01-07T17:10:05;8.40;;;6.73;;
13487;SDS011;6816;48.506;9.050;2024-01-07T17:13:07;7.07;;;5.77;;
13487;SDS011;6816;48.506;9.050;2024-01-07T17:16:08;7.67;;;6.17;;
13487;SDS011;6816;48.506;9.050;2024-01-07T17:19:08;7.10;;;5.30;;
13487;SDS011;6816;48.506;9.050;2024-01-07T17:22:09;7.50;;;5.90;;
13487;SDS011;6816;48.506;9.050;2024-01-07T17:25:10;6.93;;;5.37;;
13487;SDS011;6816;48.506;9.050;2024-01-07T17:28:10;8.13;;;5.53;;
13487;SDS011;6816;48.506;9.050;2024-01-07T17:31:11;6.27;;;5.60;;
13487;SDS011;6816;48.506;9.050;2024-01-07T17:34:12;6.50;;;5.57;;
13487;SDS011;6816;48.506;9.050;2024-01-07T17:37:12;8.77;;;5.97;;
13487;SDS011;6816;48.506;9.050;2024-01-07T17:40:13;6.20;;;5.43;;
13487;SDS011;6816;48.506;9.050;2024-01-07T17:43:14;6.10;;;4.77;;
13487;SDS011;6816;48.506;9.050;2024-01-07T17:46:15;6.40;;;4.40;;
13487;SDS011;6816;48.506;9.050;2024-01-07T17:49:15;4.83;;;4.10;;
13487;SDS011;6816;48.506;9.050;2024-01-07T17:52:16;6.30;;;4.03;;
13487;SDS011;6816;48.506;9.050;2024-01-07T17:55:16;5.07;;;4.03;;
13487;SDS011;6816;48.506;9.050;2024-01-07T17:58:18;4.80;;;4.07;;
13487;SDS011;6816;48.506;9.050;2024-01-07T18:01:19;5.10;;;3.77;;
13487;SDS011;6816;48.506;9.050;2024-01-07T18:04:20;5.40;;;4.10;;
13487;SDS011;6816;48.506;9.050;2024-01-07T18:07:20;4.70;;;3.90;;
13487;SDS011;6816;48.506;9.050;2024-01-07T18:10:21;5.80;;;4.53;;
13487;SDS011;6816;48.506;9.050;2024-01-07T18:13:22;5.13;;;4.13;;
13487;SDS011;6816;48.506;9.050;2024-01-07T18:16:24;6.23;;;4.20;;
13487;SDS011;6816;48.506;9.050;2024-01-07T18:19:25;4.83;;;4.07;;
13487;SDS011;6816;48.506;9.050;2024-01-07T18:22:25;4.77;;;3.80;;
13487;SDS011;6816;48.506;9.050;2024-01-07T18:25:26;5.90;;;4.70;;
13487;SDS011;6816;48.506;9.050;2024-01-07T18:28:27;5.87;;;4.27;;
13487;SDS011;6816;48.506;9.050;2024-01-07T18:31:27;5.47;;;3.93;;
13487;SDS011;6816;48.506;9.050;2024-01-07T18:34:28;5.97;;;3.90;;